createdAt,value
2023-02-12T00:01:10.307Z,100.00
2023-02-12T00:03:39.327Z,100.00
2023-02-12T00:06:10.010Z,100.00
2023-02-12T00:08:39.677Z,100.00
2023-02-12T00:11:12.856Z,100.00
2023-02-12T00:13:41.226Z,100.00
2023-02-12T00:16:11.612Z,100.00
2023-02-12T00:18:40.084Z,100.00
2023-02-12T00:21:09.889Z,100.00
2023-02-12T00:23:39.339Z,99.59
2023-02-12T00:26:08.221Z,100.00
2023-02-12T00:28:36.961Z,100.00
2023-02-12T00:31:09.332Z,100.00
2023-02-12T00:33:37.979Z,98.67
2023-02-12T00:36:06.752Z,100.00
2023-02-12T00:38:36.590Z,100.00
2023-02-12T00:41:05.262Z,99.97
2023-02-12T00:43:33.388Z,100.00
2023-02-12T00:46:02.650Z,100.00
2023-02-12T00:48:30.835Z,100.00
2023-02-12T00:50:58.969Z,100.00
2023-02-12T00:53:29.125Z,100.00
2023-02-12T00:55:58.704Z,100.00
2023-02-12T00:58:27.159Z,100.00
2023-02-12T01:00:56.028Z,98.94
2023-02-12T01:03:25.076Z,98.51
2023-02-12T01:05:53.951Z,98.42
2023-02-12T01:08:22.593Z,99.12
2023-02-12T01:10:59.738Z,98.42
2023-02-12T01:13:30.658Z,98.01
2023-02-12T01:16:11.006Z,98.23
2023-02-12T01:18:40.086Z,98.84
2023-02-12T01:21:13.117Z,98.05
2023-02-12T01:23:41.482Z,97.12
2023-02-12T01:26:12.246Z,97.66
2023-02-12T01:28:40.792Z,96.67
2023-02-12T01:31:12.062Z,98.60
2023-02-12T01:33:40.319Z,99.88
2023-02-12T01:36:09.661Z,99.53
2023-02-12T01:38:37.806Z,98.78
2023-02-12T01:41:07.157Z,98.97
2023-02-12T01:43:38.099Z,98.45
2023-02-12T01:46:07.106Z,97.38
2023-02-12T01:48:38.182Z,98.07
2023-02-12T01:51:09.495Z,97.11
2023-02-12T01:53:43.072Z,96.92
2023-02-12T01:56:11.535Z,96.50
2023-02-12T01:58:44.078Z,95.97
2023-02-12T02:01:16.824Z,94.13
2023-02-12T02:03:48.668Z,94.51
2023-02-12T02:06:22.410Z,91.77
2023-02-12T02:08:51.200Z,93.75
2023-02-12T02:11:36.580Z,92.45
2023-02-12T02:14:25.956Z,93.46
2023-02-12T02:17:02.708Z,95.56
2023-02-12T02:19:45.525Z,96.08
2023-02-12T02:22:27.912Z,94.86
2023-02-12T02:25:23.141Z,95.03
2023-02-12T02:28:03.624Z,97.23
2023-02-12T02:30:45.568Z,96.00
2023-02-12T02:33:34.452Z,91.95
2023-02-12T02:36:15.635Z,89.70
2023-02-12T02:38:49.683Z,90.61
2023-02-12T02:41:23.890Z,91.27
2023-02-12T02:43:53.663Z,89.91
2023-02-12T02:46:29.094Z,88.46
2023-02-12T02:49:02.225Z,89.67
2023-02-12T02:51:34.668Z,88.92
2023-02-12T02:54:08.810Z,88.80
2023-02-12T02:56:40.434Z,89.98
2023-02-12T02:59:12.872Z,93.08
2023-02-12T03:01:45.328Z,95.48
2023-02-12T03:04:20.853Z,94.95
2023-02-12T03:06:55.818Z,93.78
2023-02-12T03:09:28.233Z,92.18
2023-02-12T03:12:01.470Z,90.70
2023-02-12T03:14:33.546Z,92.54
2023-02-12T03:17:08.029Z,90.46
2023-02-12T03:19:41.121Z,89.95
2023-02-12T03:22:13.023Z,90.68
2023-02-12T03:24:45.918Z,89.53
2023-02-12T03:27:19.367Z,89.74
2023-02-12T03:29:48.015Z,87.92
2023-02-12T03:32:32.340Z,86.71
2023-02-12T03:35:11.099Z,87.18
2023-02-12T03:37:45.030Z,87.96
2023-02-12T03:40:19.868Z,87.81
2023-02-12T03:42:56.621Z,87.03
2023-02-12T03:45:35.424Z,86.63
2023-02-12T03:48:12.562Z,85.12
2023-02-12T03:50:48.039Z,86.03
2023-02-12T03:53:16.286Z,85.30
2023-02-12T03:55:49.183Z,86.58
2023-02-12T03:58:23.475Z,86.23
2023-02-12T04:00:52.590Z,87.24
2023-02-12T04:03:22.514Z,86.38
2023-02-12T04:05:50.615Z,85.29
2023-02-12T04:08:18.773Z,85.30
2023-02-12T04:10:57.766Z,88.17
2023-02-12T04:13:34.592Z,89.59
2023-02-12T04:16:13.359Z,88.38
2023-02-12T04:18:46.035Z,90.31
2023-02-12T04:21:26.923Z,89.07
2023-02-12T04:24:07.418Z,89.29
2023-02-12T04:26:43.055Z,88.24
2023-02-12T04:29:20.538Z,88.86
2023-02-12T04:31:52.152Z,88.90
2023-02-12T04:34:29.314Z,89.26
2023-02-12T04:37:00.731Z,91.58
2023-02-12T04:39:32.490Z,92.13
2023-02-12T04:42:01.806Z,91.48
2023-02-12T04:44:32.638Z,90.60
2023-02-12T04:47:01.377Z,90.18
2023-02-12T04:49:31.140Z,88.54
2023-02-12T04:51:59.455Z,89.43
2023-02-12T04:54:27.507Z,90.04
2023-02-12T04:56:55.684Z,91.35
2023-02-12T04:59:23.770Z,90.54
2023-02-12T05:01:52.195Z,89.85
2023-02-12T05:04:21.010Z,90.53
2023-02-12T05:06:50.502Z,90.12
2023-02-12T05:09:20.340Z,90.00
2023-02-12T05:11:48.509Z,90.77
2023-02-12T05:14:16.941Z,90.84
2023-02-12T05:16:45.097Z,90.94
2023-02-12T05:19:13.274Z,91.00
2023-02-12T05:21:41.580Z,90.57
2023-02-12T05:24:11.212Z,89.91
2023-02-12T05:26:39.327Z,88.71
2023-02-12T05:29:07.406Z,90.42
2023-02-12T05:31:35.884Z,90.75
2023-02-12T05:34:04.084Z,90.15
2023-02-12T05:36:32.203Z,89.07
2023-02-12T05:39:01.270Z,88.46
2023-02-12T05:41:34.966Z,88.09
2023-02-12T05:44:03.888Z,88.77
2023-02-12T05:46:32.844Z,88.10
2023-02-12T05:49:01.142Z,87.52
2023-02-12T05:51:32.269Z,86.84
2023-02-12T05:54:03.729Z,86.34
2023-02-12T05:56:34.820Z,87.64
2023-02-12T05:59:05.300Z,87.25
2023-02-12T06:01:35.192Z,86.02
2023-02-12T06:04:04.348Z,86.33
2023-02-12T06:06:33.686Z,84.28
2023-02-12T06:09:01.919Z,82.52
2023-02-12T06:11:30.128Z,81.57
2023-02-12T06:13:59.660Z,82.38
2023-02-12T06:16:29.016Z,81.99
2023-02-12T06:18:58.574Z,82.36
2023-02-12T06:21:27.809Z,85.41
2023-02-12T06:23:56.277Z,86.09
2023-02-12T06:26:25.644Z,85.46
2023-02-12T06:28:54.034Z,85.61
2023-02-12T06:31:25.724Z,84.20
2023-02-12T06:33:55.390Z,84.96
2023-02-12T06:36:23.798Z,83.02
2023-02-12T06:38:52.376Z,84.31
2023-02-12T06:41:20.995Z,87.75
2023-02-12T06:43:49.711Z,87.52
2023-02-12T06:46:17.846Z,86.88
2023-02-12T06:48:47.446Z,84.60
2023-02-12T06:51:17.441Z,84.84
2023-02-12T06:53:46.438Z,85.32
2023-02-12T06:56:15.053Z,84.29
2023-02-12T06:58:45.109Z,84.26
2023-02-12T07:01:17.749Z,81.77
2023-02-12T07:03:50.160Z,80.93
2023-02-12T07:06:18.822Z,79.58
2023-02-12T07:08:47.271Z,78.51
2023-02-12T07:11:15.680Z,77.72
2023-02-12T07:13:44.976Z,77.02
2023-02-12T07:16:15.919Z,78.58
2023-02-12T07:18:45.159Z,77.07
2023-02-12T07:21:17.009Z,77.01
2023-02-12T07:23:50.872Z,76.35
2023-02-12T07:26:20.672Z,75.95
2023-02-12T07:28:49.270Z,78.13
2023-02-12T07:31:19.783Z,78.84
2023-02-12T07:33:48.611Z,78.23
2023-02-12T07:36:20.067Z,79.43
2023-02-12T07:38:48.858Z,77.81
2023-02-12T07:41:18.934Z,77.29
2023-02-12T07:43:49.374Z,75.76
2023-02-12T07:46:19.948Z,74.73
2023-02-12T07:48:48.902Z,76.12
2023-02-12T07:51:20.045Z,77.71
2023-02-12T07:53:49.016Z,76.46
2023-02-12T07:56:18.990Z,75.30
2023-02-12T07:58:48.361Z,74.41
2023-02-12T08:01:19.485Z,73.52
2023-02-12T08:03:48.901Z,74.28
2023-02-12T08:06:20.347Z,72.70
2023-02-12T08:08:48.969Z,73.98
2023-02-12T08:11:18.941Z,73.40
2023-02-12T08:13:47.558Z,72.26
2023-02-12T08:16:17.659Z,72.24
2023-02-12T08:18:46.045Z,72.08
2023-02-12T08:21:15.525Z,74.44
2023-02-12T08:23:46.153Z,75.58
2023-02-12T08:26:16.946Z,76.13
2023-02-12T08:28:47.314Z,75.40
2023-02-12T08:31:17.816Z,73.57
2023-02-12T08:33:46.553Z,72.06
2023-02-12T08:36:16.444Z,70.86
2023-02-12T08:38:47.254Z,69.46
2023-02-12T08:41:19.284Z,69.97
2023-02-12T08:43:49.316Z,70.11
2023-02-12T08:46:20.068Z,69.20
2023-02-12T08:48:48.725Z,67.83
2023-02-12T08:51:19.199Z,67.39
2023-02-12T08:53:50.200Z,68.71
2023-02-12T08:56:19.348Z,71.04
2023-02-12T08:58:47.861Z,71.10
2023-02-12T09:01:17.906Z,72.44
2023-02-12T09:03:47.367Z,71.73
2023-02-12T09:06:17.045Z,74.11
2023-02-12T09:08:45.785Z,75.78
2023-02-12T09:11:17.700Z,72.48
2023-02-12T09:13:47.384Z,69.77
2023-02-12T09:16:15.851Z,70.14
2023-02-12T09:18:45.274Z,69.70
2023-02-12T09:21:16.701Z,68.58
2023-02-12T09:23:45.614Z,67.94
2023-02-12T09:26:17.370Z,70.42
2023-02-12T09:28:45.581Z,69.58
2023-02-12T09:31:15.967Z,67.58
2023-02-12T09:33:44.314Z,66.86
2023-02-12T09:36:15.903Z,66.27
2023-02-12T09:38:48.231Z,67.01
2023-02-12T09:41:48.237Z,66.11
2023-02-12T09:44:22.031Z,66.28
2023-02-12T09:46:54.802Z,65.76
2023-02-12T09:49:39.452Z,65.40
2023-02-12T09:52:14.604Z,65.02
2023-02-12T09:54:45.545Z,64.82
2023-02-12T09:57:21.397Z,64.54
2023-02-12T09:59:55.533Z,64.29
2023-02-12T10:02:25.394Z,63.86
2023-02-12T10:05:01.239Z,64.27
2023-02-12T10:07:58.121Z,64.28
2023-02-12T10:10:40.427Z,64.50
2023-02-12T10:13:19.972Z,64.25
2023-02-12T10:15:54.367Z,63.80
2023-02-12T10:18:43.943Z,63.87
2023-02-12T10:21:28.600Z,63.04
2023-02-12T10:24:06.993Z,63.25
2023-02-12T10:26:41.825Z,63.05
2023-02-12T10:29:16.345Z,62.36
2023-02-12T10:31:48.223Z,62.53
2023-02-12T10:34:20.610Z,62.60
2023-02-12T10:36:50.578Z,63.13
2023-02-12T10:39:23.700Z,63.52
2023-02-12T10:41:59.803Z,62.50
2023-02-12T10:44:29.521Z,62.16
2023-02-12T10:46:57.651Z,62.04
2023-02-12T10:49:26.104Z,61.88
2023-02-12T10:52:02.189Z,61.48
2023-02-12T10:54:37.069Z,62.23
2023-02-12T10:57:13.661Z,61.56
2023-02-12T10:59:44.615Z,62.14
2023-02-12T11:02:25.315Z,62.61
2023-02-12T11:04:55.313Z,61.67
2023-02-12T11:07:24.669Z,60.18
2023-02-12T11:09:54.886Z,66.14
2023-02-12T11:12:33.550Z,64.04
2023-02-12T11:15:05.723Z,64.59
2023-02-12T11:17:37.870Z,66.39
2023-02-12T11:20:20.670Z,64.11
2023-02-12T11:22:57.300Z,67.61
2023-02-12T11:25:28.191Z,66.61
2023-02-12T11:28:15.182Z,67.67
2023-02-12T11:30:53.529Z,69.39
2023-02-12T11:33:30.833Z,69.89
2023-02-12T11:36:01.821Z,69.71
2023-02-12T11:38:36.172Z,67.71
2023-02-12T11:41:10.013Z,67.13
2023-02-12T11:43:40.172Z,67.57
2023-02-12T11:46:09.969Z,65.05
2023-02-12T11:48:40.914Z,65.74
2023-02-12T11:51:18.741Z,64.73
2023-02-12T11:53:51.241Z,65.17
2023-02-12T11:56:20.070Z,64.46
2023-02-12T11:58:49.128Z,64.93
2023-02-12T12:01:22.457Z,64.58
2023-02-12T12:03:59.282Z,64.31
2023-02-12T12:06:37.468Z,65.39
2023-02-12T12:09:13.275Z,64.99
2023-02-12T12:11:59.187Z,64.12
2023-02-12T12:14:31.331Z,63.99
2023-02-12T12:17:23.391Z,62.01
2023-02-12T12:19:59.139Z,63.58
2023-02-12T12:22:43.950Z,62.58
2023-02-12T12:25:21.671Z,62.21
2023-02-12T12:28:05.604Z,60.46
2023-02-12T12:30:42.337Z,59.29
2023-02-12T12:33:18.419Z,60.25
2023-02-12T12:35:55.553Z,56.67
2023-02-12T12:38:39.515Z,56.08
2023-02-12T12:41:17.375Z,56.56
2023-02-12T12:43:57.022Z,59.34
2023-02-12T12:46:41.093Z,57.72
2023-02-12T12:49:45.435Z,57.60
2023-02-12T12:52:33.189Z,54.85
2023-02-12T12:55:24.829Z,56.24
2023-02-12T12:58:02.571Z,57.47
2023-02-12T13:00:49.631Z,57.88
2023-02-12T13:03:54.665Z,57.43
2023-02-12T13:06:47.487Z,59.00
2023-02-12T13:09:39.628Z,59.40
2023-02-12T13:12:32.493Z,54.49
2023-02-12T13:15:08.308Z,54.05
2023-02-12T13:17:46.107Z,56.58
2023-02-12T13:20:21.258Z,55.74
2023-02-12T13:22:58.624Z,59.55
2023-02-12T13:25:32.217Z,58.48
2023-02-12T13:28:03.433Z,56.33
2023-02-12T13:30:34.887Z,57.36
2023-02-12T13:33:11.621Z,55.65
2023-02-12T13:35:44.454Z,55.10
2023-02-12T13:38:20.174Z,55.97
2023-02-12T13:40:49.948Z,56.85
2023-02-12T13:43:35.969Z,56.27
2023-02-12T13:46:10.291Z,55.29
2023-02-12T13:48:50.183Z,53.86
2023-02-12T13:51:29.486Z,53.20
2023-02-12T13:54:14.722Z,54.42
2023-02-12T13:56:44.753Z,55.11
2023-02-12T13:59:42.191Z,52.05
2023-02-12T14:02:44.933Z,52.06
2023-02-12T14:05:37.313Z,52.71
2023-02-12T14:08:08.051Z,50.74
2023-02-12T14:10:41.545Z,51.21
2023-02-12T14:13:34.192Z,49.49
2023-02-12T14:16:21.092Z,50.56
2023-02-12T14:18:49.307Z,50.93
2023-02-12T14:21:38.354Z,51.02
2023-02-12T14:24:52.193Z,51.74
2023-02-12T14:27:30.583Z,50.66
2023-02-12T14:30:04.540Z,50.53
2023-02-12T14:32:58.576Z,53.09
2023-02-12T14:35:34.222Z,52.22
2023-02-12T14:38:04.438Z,51.59
2023-02-12T14:40:44.403Z,51.70
2023-02-12T14:43:30.043Z,51.47
2023-02-12T14:46:00.559Z,51.73
2023-02-12T14:48:51.906Z,51.58
2023-02-12T14:51:24.273Z,53.04
2023-02-12T14:53:54.756Z,52.80
2023-02-12T14:56:24.654Z,53.69
2023-02-12T14:58:57.121Z,53.34
2023-02-12T15:01:34.051Z,53.92
2023-02-12T15:04:15.980Z,54.46
2023-02-12T15:06:52.643Z,56.10
2023-02-12T15:09:31.357Z,55.92
2023-02-12T15:12:08.800Z,56.83
2023-02-12T15:14:44.328Z,56.49
2023-02-12T15:17:19.766Z,56.64
2023-02-12T15:19:53.983Z,56.93
2023-02-12T15:22:25.876Z,56.55
2023-02-12T15:24:54.055Z,55.71
2023-02-12T15:27:22.922Z,55.58
2023-02-12T15:29:54.503Z,55.74
2023-02-12T15:32:26.399Z,55.85
2023-02-12T15:34:55.462Z,56.02
2023-02-12T15:37:26.678Z,56.57
2023-02-12T15:39:57.548Z,57.31
2023-02-12T15:42:28.947Z,57.51
2023-02-12T15:45:17.392Z,58.45
2023-02-12T15:47:46.928Z,58.59
2023-02-12T15:50:16.787Z,59.33
2023-02-12T15:52:47.640Z,58.64
2023-02-12T15:55:18.398Z,58.43
2023-02-12T15:57:51.156Z,58.22
2023-02-12T16:00:30.711Z,57.95
2023-02-12T16:02:58.821Z,58.76
2023-02-12T16:05:27.690Z,59.33
2023-02-12T16:07:56.545Z,59.05
2023-02-12T16:10:24.985Z,62.79
2023-02-12T16:12:53.847Z,64.04
2023-02-12T16:15:28.932Z,65.87
2023-02-12T16:17:58.502Z,66.82
2023-02-12T16:20:29.038Z,68.52
2023-02-12T16:22:57.769Z,69.51
2023-02-12T16:25:28.198Z,70.46
2023-02-12T16:28:00.327Z,70.00
2023-02-12T16:30:32.914Z,71.74
2023-02-12T16:33:09.386Z,70.72
2023-02-12T16:35:43.158Z,70.09
2023-02-12T16:38:40.370Z,71.69
2023-02-12T16:41:34.202Z,72.78
2023-02-12T16:44:26.044Z,75.20
2023-02-12T16:46:57.906Z,75.78
2023-02-12T16:49:27.306Z,75.46
2023-02-12T16:52:27.005Z,75.46
2023-02-12T16:54:55.123Z,75.35
2023-02-12T16:57:23.221Z,75.08
2023-02-12T16:59:51.336Z,75.89
2023-02-12T17:02:24.621Z,76.76
2023-02-12T17:05:01.030Z,77.07
2023-02-12T17:07:31.141Z,76.69
2023-02-12T17:09:59.327Z,76.33
2023-02-12T17:12:28.450Z,76.18
2023-02-12T17:14:56.959Z,76.82
2023-02-12T17:17:26.394Z,76.24
2023-02-12T17:19:54.558Z,77.11
2023-02-12T17:22:25.866Z,74.91
2023-02-12T17:24:54.831Z,72.14
2023-02-12T17:27:22.888Z,74.97
2023-02-12T17:29:51.122Z,75.41
2023-02-12T17:32:19.314Z,76.20
2023-02-12T17:34:49.420Z,76.70
2023-02-12T17:37:18.509Z,77.92
2023-02-12T17:39:46.632Z,79.66
2023-02-12T17:42:14.924Z,79.22
2023-02-12T17:44:42.948Z,78.23
2023-02-12T17:47:11.229Z,77.74
2023-02-12T17:49:40.030Z,77.42
2023-02-12T17:52:09.703Z,76.54
2023-02-12T17:54:37.953Z,77.13
2023-02-12T17:57:06.147Z,78.12
2023-02-12T17:59:34.197Z,77.83
2023-02-12T18:02:02.871Z,76.28
2023-02-12T18:04:34.051Z,76.38
2023-02-12T18:07:02.258Z,76.35
2023-02-12T18:09:32.026Z,77.60
2023-02-12T18:12:00.609Z,75.55
2023-02-12T18:14:28.737Z,74.95
2023-02-12T18:16:57.087Z,75.51
2023-02-12T18:19:26.728Z,76.46
2023-02-12T18:21:54.858Z,75.99
2023-02-12T18:24:22.934Z,76.01
2023-02-12T18:26:52.617Z,75.37
2023-02-12T18:29:20.810Z,75.07
2023-02-12T18:31:48.973Z,75.04
2023-02-12T18:34:17.449Z,75.15
2023-02-12T18:36:45.491Z,74.56
2023-02-12T18:39:13.582Z,73.14
2023-02-12T18:41:41.658Z,73.27
2023-02-12T18:44:11.158Z,75.43
2023-02-12T18:46:39.444Z,74.64
2023-02-12T18:49:07.499Z,73.84
2023-02-12T18:51:39.904Z,74.68
2023-02-12T18:54:10.171Z,75.42
2023-02-12T18:56:41.072Z,75.52
2023-02-12T18:59:13.359Z,76.33
2023-02-12T19:01:41.820Z,77.43
2023-02-12T19:04:13.910Z,79.81
2023-02-12T19:06:46.153Z,82.06
2023-02-12T19:09:16.752Z,81.37
2023-02-12T19:11:46.803Z,80.16
2023-02-12T19:14:18.121Z,80.00
2023-02-12T19:16:47.106Z,79.01
2023-02-12T19:19:16.863Z,80.31
2023-02-12T19:21:45.208Z,80.13
2023-02-12T19:24:15.339Z,81.61
2023-02-12T19:26:44.675Z,81.71
2023-02-12T19:29:13.511Z,79.95
2023-02-12T19:31:46.416Z,81.55
2023-02-12T19:34:22.107Z,79.24
2023-02-12T19:36:57.021Z,79.41
2023-02-12T19:39:26.690Z,77.69
2023-02-12T19:41:56.243Z,77.01
2023-02-12T19:44:25.990Z,77.20
2023-02-12T19:46:56.603Z,78.05
2023-02-12T19:49:27.005Z,79.46
2023-02-12T19:51:55.202Z,79.23
2023-02-12T19:54:25.254Z,79.15
2023-02-12T19:56:53.938Z,79.37
2023-02-12T19:59:24.551Z,78.83
2023-02-12T20:01:52.629Z,79.17
2023-02-12T20:04:24.413Z,79.82
2023-02-12T20:06:52.481Z,78.86
2023-02-12T20:09:21.538Z,80.54
2023-02-12T20:11:50.120Z,81.73
2023-02-12T20:14:20.930Z,82.44
2023-02-12T20:16:49.908Z,82.55
2023-02-12T20:19:21.104Z,82.08
2023-02-12T20:21:54.363Z,82.12
2023-02-12T20:24:22.851Z,81.61
2023-02-12T20:26:52.002Z,80.24
2023-02-12T20:29:20.591Z,81.23
2023-02-12T20:31:48.977Z,82.04
2023-02-12T20:34:19.436Z,83.12
2023-02-12T20:36:48.402Z,84.17
2023-02-12T20:39:19.600Z,84.60
2023-02-12T20:41:48.602Z,84.94
2023-02-12T20:44:20.004Z,85.35
2023-02-12T20:46:50.107Z,85.42
2023-02-12T20:49:20.994Z,86.03
2023-02-12T20:51:50.764Z,86.10
2023-02-12T20:54:20.227Z,86.15
2023-02-12T20:56:50.223Z,85.93
2023-02-12T20:59:18.518Z,85.60
2023-02-12T21:01:47.025Z,84.00
2023-02-12T21:04:34.984Z,84.74
2023-02-12T21:07:03.133Z,85.85
2023-02-12T21:09:32.658Z,86.42
2023-02-12T21:12:00.824Z,86.89
2023-02-12T21:14:28.860Z,87.05
2023-02-12T21:16:57.676Z,86.94
2023-02-12T21:19:27.006Z,87.77
2023-02-12T21:21:55.809Z,86.76
2023-02-12T21:24:26.007Z,87.22
2023-02-12T21:26:56.484Z,87.72
2023-02-12T21:29:26.703Z,86.94
2023-02-12T21:31:55.338Z,87.15
2023-02-12T21:34:24.664Z,87.34
2023-02-12T21:36:55.685Z,88.04
2023-02-12T21:39:27.239Z,88.84
2023-02-12T21:42:00.032Z,89.06
2023-02-12T21:44:28.882Z,89.44
2023-02-12T21:46:57.377Z,89.62
2023-02-12T21:49:27.855Z,89.52
2023-02-12T21:51:57.999Z,87.98
2023-02-12T21:54:26.207Z,87.00
2023-02-12T21:56:54.232Z,86.96
2023-02-12T21:59:24.876Z,87.08
2023-02-12T22:01:55.340Z,87.58
2023-02-12T22:04:23.631Z,88.67
2023-02-12T22:06:54.077Z,88.90
2023-02-12T22:09:23.914Z,88.06
2023-02-12T22:11:52.984Z,89.25
2023-02-12T22:14:23.476Z,88.76
2023-02-12T22:16:52.013Z,88.16
2023-02-12T22:19:20.260Z,88.61
2023-02-12T22:21:51.508Z,87.35
2023-02-12T22:24:19.976Z,87.82
2023-02-12T22:26:48.058Z,85.84
2023-02-12T22:29:17.328Z,85.75
2023-02-12T22:31:48.028Z,85.69
2023-02-12T22:34:18.761Z,85.22
2023-02-12T22:36:48.633Z,85.42
2023-02-12T22:39:17.672Z,85.31
2023-02-12T22:41:46.147Z,86.53
2023-02-12T22:44:15.483Z,87.32
2023-02-12T22:46:44.318Z,86.17
2023-02-12T22:49:14.201Z,85.69
2023-02-12T22:51:42.586Z,84.29
2023-02-12T22:54:14.829Z,86.12
2023-02-12T22:56:43.485Z,87.74
2023-02-12T22:59:12.856Z,87.06
2023-02-12T23:01:41.205Z,86.10
2023-02-12T23:04:13.712Z,85.66
2023-02-12T23:06:43.557Z,85.49
2023-02-12T23:09:15.066Z,86.26
2023-02-12T23:11:43.152Z,86.38
2023-02-12T23:14:11.240Z,85.15
2023-02-12T23:16:39.748Z,84.34
2023-02-12T23:19:07.918Z,83.29
2023-02-12T23:21:35.952Z,84.15
2023-02-12T23:24:05.598Z,82.55
2023-02-12T23:26:33.768Z,81.83
2023-02-12T23:29:01.838Z,81.84
2023-02-12T23:31:30.143Z,82.00
2023-02-12T23:33:58.204Z,82.36
2023-02-12T23:36:26.354Z,84.17
2023-02-12T23:38:54.412Z,85.32
2023-02-12T23:41:23.907Z,84.61
2023-02-12T23:43:52.038Z,84.37
2023-02-12T23:46:20.106Z,86.39
2023-02-12T23:48:48.175Z,86.22
2023-02-12T23:51:16.333Z,86.38
2023-02-12T23:53:44.397Z,86.89
2023-02-12T23:56:12.479Z,85.19
2023-02-12T23:58:42.051Z,85.12
